sensor_id;sensor_type;location;lat;lon;timestamp;P1;durP1;ratioP1;P2;durP2;ratioP2
16640;SDS011;8434;47.990;7.880;2023-01-15T00:00:46;0.10;;;0.10;;
16640;SDS011;8434;47.990;7.880;2023-01-15T00:03:31;0.63;;;0.30;;
16640;SDS011;8434;47.990;7.880;2023-01-15T00:06:16;1.10;;;0.20;;
16640;SDS011;8434;47.990;7.880;2023-01-15T00:09:02;0.60;;;0.20;;
16640;SDS011;8434;47.990;7.880;2023-01-15T00:11:48;0.83;;;0.53;;
16640;SDS011;8434;47.990;7.880;2023-01-15T00:14:33;0.50;;;0.30;;
16640;SDS011;8434;47.990;7.880;2023-01-15T00:17:18;0.30;;;0.30;;
16640;SDS011;8434;47.990;7.880;2023-01-15T00:20:03;0.27;;;0.20;;
16640;SDS011;8434;47.990;7.880;2023-01-15T00:22:48;0.20;;;0.20;;
16640;SDS011;8434;47.990;7.880;2023-01-15T00:25:34;0.10;;;0.10;;
16640;SDS011;8434;47.990;7.880;2023-01-15T00:28:37;0.13;;;0.13;;
16640;SDS011;8434;47.990;7.880;2023-01-15T00:31:22;0.40;;;0.23;;
16640;SDS011;8434;47.990;7.880;2023-01-15T00:34:07;1.50;;;0.20;;
16640;SDS011;8434;47.990;7.880;2023-01-15T00:36:52;0.20;;;0.20;;
16640;SDS011;8434;47.990;7.880;2023-01-15T00:39:37;0.13;;;0.13;;
16640;SDS011;8434;47.990;7.880;2023-01-15T00:42:23;0.83;;;0.40;;
16640;SDS011;8434;47.990;7.880;2023-01-15T00:45:09;0.77;;;0.20;;
16640;SDS011;8434;47.990;7.880;2023-01-15T00:47:54;0.20;;;0.20;;
16640;SDS011;8434;47.990;7.880;2023-01-15T00:50:39;0.20;;;0.20;;
16640;SDS011;8434;47.990;7.880;2023-01-15T00:53:24;0.10;;;0.10;;
16640;SDS011;8434;47.990;7.880;2023-01-15T00:56:09;0.20;;;0.20;;
16640;SDS011;8434;47.990;7.880;2023-01-15T00:58:55;0.47;;;0.20;;
16640;SDS011;8434;47.990;7.880;2023-01-15T01:01:40;0.20;;;0.20;;
16640;SDS011;8434;47.990;7.880;2023-01-15T01:04:25;0.53;;;0.30;;
16640;SDS011;8434;47.990;7.880;2023-01-15T01:07:10;0.10;;;0.10;;
16640;SDS011;8434;47.990;7.880;2023-01-15T01:09:55;0.13;;;0.13;;
16640;SDS011;8434;47.990;7.880;2023-01-15T01:12:40;0.20;;;0.20;;
16640;SDS011;8434;47.990;7.880;2023-01-15T01:15:26;0.20;;;0.20;;
16640;SDS011;8434;47.990;7.880;2023-01-15T01:18:12;0.20;;;0.20;;
16640;SDS011;8434;47.990;7.880;2023-01-15T01:20:56;0.20;;;0.20;;
16640;SDS011;8434;47.990;7.880;2023-01-15T01:23:41;0.20;;;0.17;;
16640;SDS011;8434;47.990;7.880;2023-01-15T01:26:26;0.27;;;0.27;;
16640;SDS011;8434;47.990;7.880;2023-01-15T01:29:11;0.20;;;0.20;;
16640;SDS011;8434;47.990;7.880;2023-01-15T01:31:58;0.30;;;0.30;;
16640;SDS011;8434;47.990;7.880;2023-01-15T01:34:43;0.20;;;0.20;;
16640;SDS011;8434;47.990;7.880;2023-01-15T01:37:28;0.20;;;0.20;;
16640;SDS011;8434;47.990;7.880;2023-01-15T01:40:13;0.97;;;0.23;;
16640;SDS011;8434;47.990;7.880;2023-01-15T01:42:58;0.20;;;0.20;;
16640;SDS011;8434;47.990;7.880;2023-01-15T01:45:43;1.30;;;0.40;;
16640;SDS011;8434;47.990;7.880;2023-01-15T01:48:29;1.23;;;0.30;;
16640;SDS011;8434;47.990;7.880;2023-01-15T01:51:16;0.20;;;0.20;;
16640;SDS011;8434;47.990;7.880;2023-01-15T01:54:02;0.20;;;0.20;;
16640;SDS011;8434;47.990;7.880;2023-01-15T01:56:47;0.20;;;0.20;;
16640;SDS011;8434;47.990;7.880;2023-01-15T01:59:33;0.27;;;0.23;;
16640;SDS011;8434;47.990;7.880;2023-01-15T02:02:19;0.20;;;0.20;;
16640;SDS011;8434;47.990;7.880;2023-01-15T02:05:06;0.10;;;0.10;;
16640;SDS011;8434;47.990;7.880;2023-01-15T02:07:52;0.57;;;0.10;;
16640;SDS011;8434;47.990;7.880;2023-01-15T02:10:38;0.20;;;0.20;;
16640;SDS011;8434;47.990;7.880;2023-01-15T02:13:25;0.50;;;0.30;;
16640;SDS011;8434;47.990;7.880;2023-01-15T02:16:12;0.20;;;0.20;;
16640;SDS011;8434;47.990;7.880;2023-01-15T02:18:59;0.20;;;0.20;;
16640;SDS011;8434;47.990;7.880;2023-01-15T02:21:50;0.20;;;0.20;;
16640;SDS011;8434;47.990;7.880;2023-01-15T02:24:40;0.50;;;0.20;;
16640;SDS011;8434;47.990;7.880;2023-01-15T02:27:27;0.53;;;0.30;;
16640;SDS011;8434;47.990;7.880;2023-01-15T02:30:14;0.70;;;0.20;;
16640;SDS011;8434;47.990;7.880;2023-01-15T02:33:02;0.70;;;0.20;;
16640;SDS011;8434;47.990;7.880;2023-01-15T02:35:49;0.20;;;0.20;;
16640;SDS011;8434;47.990;7.880;2023-01-15T02:38:36;0.33;;;0.20;;
16640;SDS011;8434;47.990;7.880;2023-01-15T02:41:24;0.53;;;0.53;;
16640;SDS011;8434;47.990;7.880;2023-01-15T02:44:11;0.20;;;0.20;;
16640;SDS011;8434;47.990;7.880;2023-01-15T02:46:57;0.20;;;0.20;;
16640;SDS011;8434;47.990;7.880;2023-01-15T02:49:43;1.10;;;0.37;;
16640;SDS011;8434;47.990;7.880;2023-01-15T02:52:30;0.33;;;0.30;;
16640;SDS011;8434;47.990;7.880;2023-01-15T02:55:19;0.27;;;0.27;;
16640;SDS011;8434;47.990;7.880;2023-01-15T02:58:06;0.37;;;0.20;;
16640;SDS011;8434;47.990;7.880;2023-01-15T03:00:54;0.47;;;0.20;;
16640;SDS011;8434;47.990;7.880;2023-01-15T03:03:41;0.30;;;0.20;;
16640;SDS011;8434;47.990;7.880;2023-01-15T03:06:31;0.23;;;0.20;;
16640;SDS011;8434;47.990;7.880;2023-01-15T03:09:17;0.73;;;0.30;;
16640;SDS011;8434;47.990;7.880;2023-01-15T03:12:03;0.33;;;0.30;;
16640;SDS011;8434;47.990;7.880;2023-01-15T03:14:51;0.30;;;0.30;;
16640;SDS011;8434;47.990;7.880;2023-01-15T03:17:44;0.10;;;0.10;;
16640;SDS011;8434;47.990;7.880;2023-01-15T03:20:31;0.20;;;0.20;;
16640;SDS011;8434;47.990;7.880;2023-01-15T03:23:16;0.37;;;0.30;;
16640;SDS011;8434;47.990;7.880;2023-01-15T03:26:04;0.20;;;0.20;;
16640;SDS011;8434;47.990;7.880;2023-01-15T03:28:50;0.43;;;0.20;;
16640;SDS011;8434;47.990;7.880;2023-01-15T03:31:36;1.00;;;0.30;;
16640;SDS011;8434;47.990;7.880;2023-01-15T03:34:22;0.30;;;0.30;;
16640;SDS011;8434;47.990;7.880;2023-01-15T03:37:08;0.30;;;0.30;;
16640;SDS011;8434;47.990;7.880;2023-01-15T03:39:54;0.60;;;0.30;;
16640;SDS011;8434;47.990;7.880;2023-01-15T03:42:43;0.50;;;0.50;;
16640;SDS011;8434;47.990;7.880;2023-01-15T03:45:30;0.20;;;0.20;;
16640;SDS011;8434;47.990;7.880;2023-01-15T03:48:17;1.60;;;0.30;;
16640;SDS011;8434;47.990;7.880;2023-01-15T03:51:06;0.30;;;0.30;;
16640;SDS011;8434;47.990;7.880;2023-01-15T03:53:53;0.43;;;0.30;;
16640;SDS011;8434;47.990;7.880;2023-01-15T03:56:40;0.40;;;0.20;;
16640;SDS011;8434;47.990;7.880;2023-01-15T03:59:31;0.20;;;0.20;;
16640;SDS011;8434;47.990;7.880;2023-01-15T04:02:17;1.27;;;0.20;;
16640;SDS011;8434;47.990;7.880;2023-01-15T04:05:03;1.37;;;0.30;;
16640;SDS011;8434;47.990;7.880;2023-01-15T04:07:49;0.43;;;0.30;;
16640;SDS011;8434;47.990;7.880;2023-01-15T04:10:35;0.20;;;0.20;;
16640;SDS011;8434;47.990;7.880;2023-01-15T04:13:20;0.40;;;0.40;;
16640;SDS011;8434;47.990;7.880;2023-01-15T04:16:05;0.20;;;0.20;;
16640;SDS011;8434;47.990;7.880;2023-01-15T04:18:50;0.20;;;0.20;;
16640;SDS011;8434;47.990;7.880;2023-01-15T04:21:35;0.57;;;0.23;;
16640;SDS011;8434;47.990;7.880;2023-01-15T04:24:22;0.10;;;0.10;;
16640;SDS011;8434;47.990;7.880;2023-01-15T04:27:07;0.20;;;0.20;;
16640;SDS011;8434;47.990;7.880;2023-01-15T04:29:52;0.20;;;0.20;;
16640;SDS011;8434;47.990;7.880;2023-01-15T04:32:38;2.00;;;0.40;;
16640;SDS011;8434;47.990;7.880;2023-01-15T04:35:22;0.50;;;0.20;;
16640;SDS011;8434;47.990;7.880;2023-01-15T04:38:07;0.30;;;0.20;;
16640;SDS011;8434;47.990;7.880;2023-01-15T04:40:54;0.20;;;0.20;;
16640;SDS011;8434;47.990;7.880;2023-01-15T04:43:57;0.40;;;0.30;;
16640;SDS011;8434;47.990;7.880;2023-01-15T04:46:51;0.20;;;0.20;;
16640;SDS011;8434;47.990;7.880;2023-01-15T04:49:37;0.50;;;0.20;;
16640;SDS011;8434;47.990;7.880;2023-01-15T04:52:22;0.80;;;0.23;;
16640;SDS011;8434;47.990;7.880;2023-01-15T04:55:06;0.17;;;0.17;;
16640;SDS011;8434;47.990;7.880;2023-01-15T04:57:53;0.20;;;0.20;;
16640;SDS011;8434;47.990;7.880;2023-01-15T05:00:39;0.30;;;0.30;;
16640;SDS011;8434;47.990;7.880;2023-01-15T05:03:24;0.90;;;0.30;;
16640;SDS011;8434;47.990;7.880;2023-01-15T05:06:09;0.83;;;0.27;;
16640;SDS011;8434;47.990;7.880;2023-01-15T05:08:54;0.30;;;0.30;;
16640;SDS011;8434;47.990;7.880;2023-01-15T05:11:40;0.73;;;0.30;;
16640;SDS011;8434;47.990;7.880;2023-01-15T05:14:27;0.33;;;0.33;;
16640;SDS011;8434;47.990;7.880;2023-01-15T05:17:12;0.60;;;0.30;;
16640;SDS011;8434;47.990;7.880;2023-01-15T05:19:56;0.30;;;0.30;;
16640;SDS011;8434;47.990;7.880;2023-01-15T05:22:42;0.40;;;0.30;;
16640;SDS011;8434;47.990;7.880;2023-01-15T05:25:27;0.20;;;0.20;;
16640;SDS011;8434;47.990;7.880;2023-01-15T05:28:12;2.30;;;0.50;;
16640;SDS011;8434;47.990;7.880;2023-01-15T05:30:59;0.33;;;0.30;;
16640;SDS011;8434;47.990;7.880;2023-01-15T05:33:50;0.43;;;0.37;;
16640;SDS011;8434;47.990;7.880;2023-01-15T05:36:35;0.43;;;0.30;;
16640;SDS011;8434;47.990;7.880;2023-01-15T05:39:21;0.20;;;0.20;;
16640;SDS011;8434;47.990;7.880;2023-01-15T05:42:05;0.70;;;0.43;;
16640;SDS011;8434;47.990;7.880;2023-01-15T05:44:51;0.40;;;0.40;;
16640;SDS011;8434;47.990;7.880;2023-01-15T05:47:38;0.77;;;0.40;;
16640;SDS011;8434;47.990;7.880;2023-01-15T05:50:23;0.63;;;0.40;;
16640;SDS011;8434;47.990;7.880;2023-01-15T05:53:08;0.57;;;0.47;;
16640;SDS011;8434;47.990;7.880;2023-01-15T05:55:53;0.40;;;0.37;;
16640;SDS011;8434;47.990;7.880;2023-01-15T05:58:38;0.30;;;0.30;;
16640;SDS011;8434;47.990;7.880;2023-01-15T06:01:22;0.33;;;0.20;;
16640;SDS011;8434;47.990;7.880;2023-01-15T06:04:10;3.73;;;0.67;;
16640;SDS011;8434;47.990;7.880;2023-01-15T06:06:57;2.10;;;0.50;;
16640;SDS011;8434;47.990;7.880;2023-01-15T06:09:42;0.30;;;0.30;;
16640;SDS011;8434;47.990;7.880;2023-01-15T06:12:27;1.50;;;0.50;;
16640;SDS011;8434;47.990;7.880;2023-01-15T06:15:12;0.53;;;0.30;;
16640;SDS011;8434;47.990;7.880;2023-01-15T06:17:57;0.47;;;0.40;;
16640;SDS011;8434;47.990;7.880;2023-01-15T06:20:43;0.40;;;0.40;;
16640;SDS011;8434;47.990;7.880;2023-01-15T06:23:28;1.43;;;0.80;;
16640;SDS011;8434;47.990;7.880;2023-01-15T06:26:14;0.97;;;0.60;;
16640;SDS011;8434;47.990;7.880;2023-01-15T06:28:59;0.50;;;0.50;;
16640;SDS011;8434;47.990;7.880;2023-01-15T06:31:44;0.70;;;0.57;;
16640;SDS011;8434;47.990;7.880;2023-01-15T06:34:30;1.33;;;0.50;;
16640;SDS011;8434;47.990;7.880;2023-01-15T06:37:16;0.70;;;0.50;;
16640;SDS011;8434;47.990;7.880;2023-01-15T06:40:01;0.50;;;0.50;;
16640;SDS011;8434;47.990;7.880;2023-01-15T06:42:46;1.27;;;0.67;;
16640;SDS011;8434;47.990;7.880;2023-01-15T06:45:49;1.40;;;0.73;;
16640;SDS011;8434;47.990;7.880;2023-01-15T06:49:03;1.17;;;0.93;;
16640;SDS011;8434;47.990;7.880;2023-01-15T06:51:48;1.10;;;0.60;;
16640;SDS011;8434;47.990;7.880;2023-01-15T06:54:34;2.53;;;0.90;;
16640;SDS011;8434;47.990;7.880;2023-01-15T06:57:19;1.70;;;0.63;;
16640;SDS011;8434;47.990;7.880;2023-01-15T07:00:04;1.30;;;0.60;;
16640;SDS011;8434;47.990;7.880;2023-01-15T07:02:49;0.73;;;0.40;;
16640;SDS011;8434;47.990;7.880;2023-01-15T07:05:36;0.27;;;0.27;;
16640;SDS011;8434;47.990;7.880;2023-01-15T07:08:21;0.33;;;0.30;;
16640;SDS011;8434;47.990;7.880;2023-01-15T07:11:08;1.80;;;0.60;;
16640;SDS011;8434;47.990;7.880;2023-01-15T07:13:53;0.40;;;0.40;;
16640;SDS011;8434;47.990;7.880;2023-01-15T07:16:48;1.20;;;0.70;;
16640;SDS011;8434;47.990;7.880;2023-01-15T07:19:34;0.30;;;0.30;;
16640;SDS011;8434;47.990;7.880;2023-01-15T07:22:18;0.20;;;0.20;;
16640;SDS011;8434;47.990;7.880;2023-01-15T07:25:04;1.80;;;0.30;;
16640;SDS011;8434;47.990;7.880;2023-01-15T07:27:51;0.53;;;0.30;;
16640;SDS011;8434;47.990;7.880;2023-01-15T07:30:36;2.80;;;0.40;;
16640;SDS011;8434;47.990;7.880;2023-01-15T07:33:21;0.30;;;0.30;;
16640;SDS011;8434;47.990;7.880;2023-01-15T07:36:06;1.20;;;0.30;;
16640;SDS011;8434;47.990;7.880;2023-01-15T07:38:51;0.30;;;0.30;;
16640;SDS011;8434;47.990;7.880;2023-01-15T07:41:36;0.30;;;0.30;;
16640;SDS011;8434;47.990;7.880;2023-01-15T07:44:42;0.40;;;0.30;;
16640;SDS011;8434;47.990;7.880;2023-01-15T07:47:45;0.40;;;0.40;;
16640;SDS011;8434;47.990;7.880;2023-01-15T07:50:48;0.80;;;0.30;;
16640;SDS011;8434;47.990;7.880;2023-01-15T07:53:33;0.30;;;0.30;;
16640;SDS011;8434;47.990;7.880;2023-01-15T07:56:18;0.40;;;0.40;;
16640;SDS011;8434;47.990;7.880;2023-01-15T07:59:03;0.30;;;0.30;;
16640;SDS011;8434;47.990;7.880;2023-01-15T08:01:50;0.40;;;0.40;;
16640;SDS011;8434;47.990;7.880;2023-01-15T08:04:35;0.53;;;0.40;;
16640;SDS011;8434;47.990;7.880;2023-01-15T08:07:20;0.30;;;0.30;;
16640;SDS011;8434;47.990;7.880;2023-01-15T08:10:05;0.20;;;0.20;;
16640;SDS011;8434;47.990;7.880;2023-01-15T08:12:51;0.67;;;0.40;;
16640;SDS011;8434;47.990;7.880;2023-01-15T08:15:53;1.67;;;1.13;;
16640;SDS011;8434;47.990;7.880;2023-01-15T08:18:40;1.47;;;1.37;;
16640;SDS011;8434;47.990;7.880;2023-01-15T08:21:24;0.50;;;0.50;;
16640;SDS011;8434;47.990;7.880;2023-01-15T08:24:09;1.53;;;1.07;;
16640;SDS011;8434;47.990;7.880;2023-01-15T08:26:54;2.40;;;1.83;;
16640;SDS011;8434;47.990;7.880;2023-01-15T08:29:39;1.30;;;0.63;;
16640;SDS011;8434;47.990;7.880;2023-01-15T08:32:24;0.50;;;0.40;;
16640;SDS011;8434;47.990;7.880;2023-01-15T08:35:11;0.80;;;0.80;;
16640;SDS011;8434;47.990;7.880;2023-01-15T08:37:56;0.97;;;0.83;;
16640;SDS011;8434;47.990;7.880;2023-01-15T08:40:41;0.53;;;0.43;;
16640;SDS011;8434;47.990;7.880;2023-01-15T08:43:40;0.43;;;0.43;;
16640;SDS011;8434;47.990;7.880;2023-01-15T08:46:25;0.50;;;0.50;;
16640;SDS011;8434;47.990;7.880;2023-01-15T08:49:10;0.50;;;0.50;;
16640;SDS011;8434;47.990;7.880;2023-01-15T08:51:57;1.47;;;0.90;;
16640;SDS011;8434;47.990;7.880;2023-01-15T08:54:43;0.70;;;0.67;;
16640;SDS011;8434;47.990;7.880;2023-01-15T08:57:29;0.37;;;0.37;;
16640;SDS011;8434;47.990;7.880;2023-01-15T09:00:14;1.17;;;0.40;;
16640;SDS011;8434;47.990;7.880;2023-01-15T09:03:00;1.17;;;0.67;;
16640;SDS011;8434;47.990;7.880;2023-01-15T09:05:45;0.63;;;0.60;;
16640;SDS011;8434;47.990;7.880;2023-01-15T09:08:32;0.40;;;0.40;;
16640;SDS011;8434;47.990;7.880;2023-01-15T09:11:18;1.17;;;0.60;;
16640;SDS011;8434;47.990;7.880;2023-01-15T09:14:03;1.27;;;0.80;;
16640;SDS011;8434;47.990;7.880;2023-01-15T09:16:48;0.67;;;0.53;;
16640;SDS011;8434;47.990;7.880;2023-01-15T09:19:34;1.63;;;1.20;;
16640;SDS011;8434;47.990;7.880;2023-01-15T09:22:19;1.53;;;1.27;;
16640;SDS011;8434;47.990;7.880;2023-01-15T09:25:06;2.10;;;1.60;;
16640;SDS011;8434;47.990;7.880;2023-01-15T09:27:54;0.40;;;0.40;;
16640;SDS011;8434;47.990;7.880;2023-01-15T09:30:39;0.73;;;0.70;;
16640;SDS011;8434;47.990;7.880;2023-01-15T09:33:24;0.70;;;0.70;;
16640;SDS011;8434;47.990;7.880;2023-01-15T09:36:13;1.03;;;0.70;;
16640;SDS011;8434;47.990;7.880;2023-01-15T09:38:58;0.60;;;0.60;;
16640;SDS011;8434;47.990;7.880;2023-01-15T09:41:49;0.73;;;0.50;;
16640;SDS011;8434;47.990;7.880;2023-01-15T09:44:57;0.63;;;0.60;;
16640;SDS011;8434;47.990;7.880;2023-01-15T09:47:52;1.27;;;0.60;;
16640;SDS011;8434;47.990;7.880;2023-01-15T09:50:47;0.40;;;0.40;;
16640;SDS011;8434;47.990;7.880;2023-01-15T09:53:42;0.50;;;0.40;;
16640;SDS011;8434;47.990;7.880;2023-01-15T09:56:30;1.03;;;0.40;;
16640;SDS011;8434;47.990;7.880;2023-01-15T09:59:19;1.03;;;0.50;;
16640;SDS011;8434;47.990;7.880;2023-01-15T10:02:11;0.40;;;0.40;;
16640;SDS011;8434;47.990;7.880;2023-01-15T10:05:02;0.40;;;0.40;;
16640;SDS011;8434;47.990;7.880;2023-01-15T10:07:50;1.03;;;0.60;;
16640;SDS011;8434;47.990;7.880;2023-01-15T10:10:40;0.40;;;0.40;;
16640;SDS011;8434;47.990;7.880;2023-01-15T10:13:29;0.27;;;0.27;;
16640;SDS011;8434;47.990;7.880;2023-01-15T10:16:20;0.40;;;0.30;;
16640;SDS011;8434;47.990;7.880;2023-01-15T10:19:07;0.50;;;0.30;;
16640;SDS011;8434;47.990;7.880;2023-01-15T10:21:54;0.20;;;0.20;;
16640;SDS011;8434;47.990;7.880;2023-01-15T10:24:43;0.20;;;0.20;;
16640;SDS011;8434;47.990;7.880;2023-01-15T10:27:33;0.20;;;0.20;;
16640;SDS011;8434;47.990;7.880;2023-01-15T10:30:21;0.20;;;0.20;;
16640;SDS011;8434;47.990;7.880;2023-01-15T10:33:13;0.43;;;0.40;;
16640;SDS011;8434;47.990;7.880;2023-01-15T10:36:03;0.33;;;0.33;;
16640;SDS011;8434;47.990;7.880;2023-01-15T10:38:52;0.70;;;0.47;;
16640;SDS011;8434;47.990;7.880;2023-01-15T10:41:44;0.70;;;0.60;;
16640;SDS011;8434;47.990;7.880;2023-01-15T10:44:36;0.87;;;0.60;;
16640;SDS011;8434;47.990;7.880;2023-01-15T10:47:28;0.67;;;0.47;;
16640;SDS011;8434;47.990;7.880;2023-01-15T10:50:16;0.87;;;0.47;;
16640;SDS011;8434;47.990;7.880;2023-01-15T10:53:04;0.30;;;0.30;;
16640;SDS011;8434;47.990;7.880;2023-01-15T10:55:52;0.40;;;0.40;;
16640;SDS011;8434;47.990;7.880;2023-01-15T10:58:40;0.40;;;0.33;;
16640;SDS011;8434;47.990;7.880;2023-01-15T11:01:28;0.20;;;0.20;;
16640;SDS011;8434;47.990;7.880;2023-01-15T11:04:13;0.67;;;0.60;;
16640;SDS011;8434;47.990;7.880;2023-01-15T11:06:59;0.93;;;0.70;;
16640;SDS011;8434;47.990;7.880;2023-01-15T11:09:46;0.50;;;0.40;;
16640;SDS011;8434;47.990;7.880;2023-01-15T11:12:31;0.30;;;0.30;;
16640;SDS011;8434;47.990;7.880;2023-01-15T11:15:34;1.53;;;0.60;;
16640;SDS011;8434;47.990;7.880;2023-01-15T11:21:45;0.80;;;0.60;;
16640;SDS011;8434;47.990;7.880;2023-01-15T11:24:32;1.40;;;0.77;;
16640;SDS011;8434;47.990;7.880;2023-01-15T11:27:21;0.47;;;0.47;;
16640;SDS011;8434;47.990;7.880;2023-01-15T11:33:19;0.37;;;0.30;;
16640;SDS011;8434;47.990;7.880;2023-01-15T11:36:05;0.80;;;0.53;;
16640;SDS011;8434;47.990;7.880;2023-01-15T11:38:51;0.50;;;0.43;;
16640;SDS011;8434;47.990;7.880;2023-01-15T11:41:38;0.40;;;0.40;;
16640;SDS011;8434;47.990;7.880;2023-01-15T11:44:48;0.50;;;0.40;;
16640;SDS011;8434;47.990;7.880;2023-01-15T11:47:52;0.43;;;0.40;;
16640;SDS011;8434;47.990;7.880;2023-01-15T11:50:56;0.67;;;0.67;;
16640;SDS011;8434;47.990;7.880;2023-01-15T11:53:45;1.27;;;0.60;;
16640;SDS011;8434;47.990;7.880;2023-01-15T11:56:31;0.37;;;0.37;;
16640;SDS011;8434;47.990;7.880;2023-01-15T11:59:18;0.50;;;0.50;;
16640;SDS011;8434;47.990;7.880;2023-01-15T12:02:09;1.53;;;0.50;;
16640;SDS011;8434;47.990;7.880;2023-01-15T12:04:57;0.43;;;0.43;;
16640;SDS011;8434;47.990;7.880;2023-01-15T12:07:43;0.40;;;0.40;;
16640;SDS011;8434;47.990;7.880;2023-01-15T12:10:30;0.63;;;0.50;;
16640;SDS011;8434;47.990;7.880;2023-01-15T12:13:32;1.40;;;0.50;;
16640;SDS011;8434;47.990;7.880;2023-01-15T12:16:23;1.33;;;0.60;;
16640;SDS011;8434;47.990;7.880;2023-01-15T12:19:15;0.40;;;0.40;;
16640;SDS011;8434;47.990;7.880;2023-01-15T12:22:12;0.73;;;0.40;;
16640;SDS011;8434;47.990;7.880;2023-01-15T12:25:04;1.87;;;0.87;;
16640;SDS011;8434;47.990;7.880;2023-01-15T12:27:56;2.83;;;1.97;;
16640;SDS011;8434;47.990;7.880;2023-01-15T12:30:44;0.73;;;0.60;;
16640;SDS011;8434;47.990;7.880;2023-01-15T12:33:36;0.80;;;0.50;;
16640;SDS011;8434;47.990;7.880;2023-01-15T12:36:25;0.87;;;0.57;;
16640;SDS011;8434;47.990;7.880;2023-01-15T12:39:13;0.60;;;0.50;;
16640;SDS011;8434;47.990;7.880;2023-01-15T12:42:01;0.80;;;0.60;;
16640;SDS011;8434;47.990;7.880;2023-01-15T12:45:07;1.00;;;0.60;;
16640;SDS011;8434;47.990;7.880;2023-01-15T12:47:55;1.37;;;0.40;;
16640;SDS011;8434;47.990;7.880;2023-01-15T12:50:45;0.60;;;0.60;;
16640;SDS011;8434;47.990;7.880;2023-01-15T12:53:31;0.60;;;0.60;;
16640;SDS011;8434;47.990;7.880;2023-01-15T12:56:22;0.57;;;0.47;;
16640;SDS011;8434;47.990;7.880;2023-01-15T12:59:10;2.30;;;1.10;;
16640;SDS011;8434;47.990;7.880;2023-01-15T13:02:01;0.80;;;0.50;;
16640;SDS011;8434;47.990;7.880;2023-01-15T13:04:53;0.60;;;0.53;;
16640;SDS011;8434;47.990;7.880;2023-01-15T13:07:41;1.57;;;0.83;;
16640;SDS011;8434;47.990;7.880;2023-01-15T13:10:28;3.47;;;1.13;;
16640;SDS011;8434;47.990;7.880;2023-01-15T13:13:15;0.90;;;0.50;;
16640;SDS011;8434;47.990;7.880;2023-01-15T13:16:08;1.70;;;0.60;;
16640;SDS011;8434;47.990;7.880;2023-01-15T13:19:00;0.40;;;0.40;;
16640;SDS011;8434;47.990;7.880;2023-01-15T13:21:48;1.13;;;0.37;;
16640;SDS011;8434;47.990;7.880;2023-01-15T13:24:44;1.70;;;0.53;;
16640;SDS011;8434;47.990;7.880;2023-01-15T13:27:43;0.73;;;0.40;;
16640;SDS011;8434;47.990;7.880;2023-01-15T13:30:38;2.40;;;0.60;;
16640;SDS011;8434;47.990;7.880;2023-01-15T13:33:26;5.10;;;0.87;;
16640;SDS011;8434;47.990;7.880;2023-01-15T13:36:13;2.07;;;0.90;;
16640;SDS011;8434;47.990;7.880;2023-01-15T13:39:02;1.07;;;0.60;;
16640;SDS011;8434;47.990;7.880;2023-01-15T13:41:52;0.67;;;0.50;;
16640;SDS011;8434;47.990;7.880;2023-01-15T13:44:55;1.90;;;0.70;;
16640;SDS011;8434;47.990;7.880;2023-01-15T13:47:42;1.70;;;0.50;;
16640;SDS011;8434;47.990;7.880;2023-01-15T13:50:29;1.90;;;0.70;;
16640;SDS011;8434;47.990;7.880;2023-01-15T13:53:16;1.53;;;0.80;;
16640;SDS011;8434;47.990;7.880;2023-01-15T13:56:05;2.97;;;0.57;;
16640;SDS011;8434;47.990;7.880;2023-01-15T13:58:54;1.83;;;0.40;;
16640;SDS011;8434;47.990;7.880;2023-01-15T14:01:39;2.63;;;0.80;;
16640;SDS011;8434;47.990;7.880;2023-01-15T14:04:31;1.13;;;0.40;;
16640;SDS011;8434;47.990;7.880;2023-01-15T14:07:19;0.97;;;0.70;;
16640;SDS011;8434;47.990;7.880;2023-01-15T14:10:07;1.20;;;0.67;;
16640;SDS011;8434;47.990;7.880;2023-01-15T14:16:13;2.80;;;0.70;;
16640;SDS011;8434;47.990;7.880;2023-01-15T14:19:09;2.80;;;0.43;;
16640;SDS011;8434;47.990;7.880;2023-01-15T14:22:04;1.40;;;0.70;;
16640;SDS011;8434;47.990;7.880;2023-01-15T14:27:59;1.17;;;0.40;;
16640;SDS011;8434;47.990;7.880;2023-01-15T14:33:53;1.67;;;0.83;;
16640;SDS011;8434;47.990;7.880;2023-01-15T14:36:44;2.13;;;0.53;;
16640;SDS011;8434;47.990;7.880;2023-01-15T14:39:32;0.70;;;0.70;;
16640;SDS011;8434;47.990;7.880;2023-01-15T14:42:22;2.50;;;1.20;;
16640;SDS011;8434;47.990;7.880;2023-01-15T14:45:27;2.53;;;1.20;;
16640;SDS011;8434;47.990;7.880;2023-01-15T14:48:16;2.30;;;1.10;;
16640;SDS011;8434;47.990;7.880;2023-01-15T14:51:12;2.17;;;0.90;;
16640;SDS011;8434;47.990;7.880;2023-01-15T14:53:59;4.57;;;1.60;;
16640;SDS011;8434;47.990;7.880;2023-01-15T14:56:47;1.93;;;0.83;;
16640;SDS011;8434;47.990;7.880;2023-01-15T14:59:35;1.80;;;0.60;;
16640;SDS011;8434;47.990;7.880;2023-01-15T15:02:34;1.90;;;0.73;;
16640;SDS011;8434;47.990;7.880;2023-01-15T15:05:20;2.93;;;0.60;;
16640;SDS011;8434;47.990;7.880;2023-01-15T15:08:09;0.97;;;0.47;;
16640;SDS011;8434;47.990;7.880;2023-01-15T15:10:55;4.37;;;0.90;;
16640;SDS011;8434;47.990;7.880;2023-01-15T15:13:42;3.83;;;1.00;;
16640;SDS011;8434;47.990;7.880;2023-01-15T15:16:30;1.97;;;0.77;;
16640;SDS011;8434;47.990;7.880;2023-01-15T15:19:17;2.60;;;1.07;;
16640;SDS011;8434;47.990;7.880;2023-01-15T15:22:05;0.40;;;0.40;;
16640;SDS011;8434;47.990;7.880;2023-01-15T15:24:52;2.30;;;0.60;;
16640;SDS011;8434;47.990;7.880;2023-01-15T15:27:38;2.17;;;0.70;;
16640;SDS011;8434;47.990;7.880;2023-01-15T15:30:23;3.20;;;0.90;;
16640;SDS011;8434;47.990;7.880;2023-01-15T15:33:11;0.53;;;0.53;;
16640;SDS011;8434;47.990;7.880;2023-01-15T15:35:58;2.97;;;0.60;;
16640;SDS011;8434;47.990;7.880;2023-01-15T15:38:50;2.53;;;0.97;;
16640;SDS011;8434;47.990;7.880;2023-01-15T15:41:38;4.60;;;0.70;;
16640;SDS011;8434;47.990;7.880;2023-01-15T15:44:43;2.33;;;0.70;;
16640;SDS011;8434;47.990;7.880;2023-01-15T15:47:54;5.37;;;0.90;;
16640;SDS011;8434;47.990;7.880;2023-01-15T15:50:57;1.73;;;0.50;;
16640;SDS011;8434;47.990;7.880;2023-01-15T15:53:42;0.97;;;0.50;;
16640;SDS011;8434;47.990;7.880;2023-01-15T15:56:28;0.90;;;0.57;;
16640;SDS011;8434;47.990;7.880;2023-01-15T15:59:19;1.73;;;0.50;;
16640;SDS011;8434;47.990;7.880;2023-01-15T16:02:12;0.97;;;0.50;;
16640;SDS011;8434;47.990;7.880;2023-01-15T16:05:00;2.07;;;0.70;;
16640;SDS011;8434;47.990;7.880;2023-01-15T16:07:45;1.90;;;0.53;;
16640;SDS011;8434;47.990;7.880;2023-01-15T16:10:31;0.67;;;0.50;;
16640;SDS011;8434;47.990;7.880;2023-01-15T16:13:20;0.47;;;0.37;;
16640;SDS011;8434;47.990;7.880;2023-01-15T16:16:09;2.13;;;0.53;;
16640;SDS011;8434;47.990;7.880;2023-01-15T16:18:54;3.00;;;0.97;;
16640;SDS011;8434;47.990;7.880;2023-01-15T16:21:40;1.67;;;0.50;;
16640;SDS011;8434;47.990;7.880;2023-01-15T16:24:26;2.70;;;0.80;;
16640;SDS011;8434;47.990;7.880;2023-01-15T16:27:12;1.20;;;0.67;;
16640;SDS011;8434;47.990;7.880;2023-01-15T16:29:59;3.77;;;1.27;;
16640;SDS011;8434;47.990;7.880;2023-01-15T16:32:45;5.63;;;1.00;;
16640;SDS011;8434;47.990;7.880;2023-01-15T16:35:32;1.13;;;0.70;;
16640;SDS011;8434;47.990;7.880;2023-01-15T16:38:19;1.47;;;0.60;;
16640;SDS011;8434;47.990;7.880;2023-01-15T16:41:04;2.03;;;0.80;;
16640;SDS011;8434;47.990;7.880;2023-01-15T16:43:50;1.47;;;0.70;;
16640;SDS011;8434;47.990;7.880;2023-01-15T16:46:37;1.93;;;1.00;;
16640;SDS011;8434;47.990;7.880;2023-01-15T16:49:25;1.10;;;0.60;;
16640;SDS011;8434;47.990;7.880;2023-01-15T16:58:18;1.90;;;0.87;;
16640;SDS011;8434;47.990;7.880;2023-01-15T17:04:12;2.47;;;0.73;;
16640;SDS011;8434;47.990;7.880;2023-01-15T17:07:02;0.70;;;0.60;;
16640;SDS011;8434;47.990;7.880;2023-01-15T17:09:48;0.93;;;0.67;;
16640;SDS011;8434;47.990;7.880;2023-01-15T17:12:35;0.80;;;0.50;;
16640;SDS011;8434;47.990;7.880;2023-01-15T17:15:29;1.77;;;0.73;;
16640;SDS011;8434;47.990;7.880;2023-01-15T17:18:23;1.87;;;0.83;;
16640;SDS011;8434;47.990;7.880;2023-01-15T17:21:10;1.57;;;0.60;;
16640;SDS011;8434;47.990;7.880;2023-01-15T17:23:59;3.30;;;1.17;;
16640;SDS011;8434;47.990;7.880;2023-01-15T17:26:46;4.87;;;1.00;;
16640;SDS011;8434;47.990;7.880;2023-01-15T17:29:31;1.47;;;0.67;;
16640;SDS011;8434;47.990;7.880;2023-01-15T17:32:18;2.63;;;0.80;;